sensor_id;sensor_type;location;lat;lon;timestamp;pressure;altitude;pressure_sealevel;temperature;humidity
61963;BME280;47927;42.646;23.096;2023-04-01T00:00:48;91360.50;;;12.74;43.54
61963;BME280;47927;42.646;23.096;2023-04-01T00:03:13;91359.22;;;12.86;43.53
61963;BME280;47927;42.646;23.096;2023-04-01T00:05:39;91357.66;;;12.92;43.43
61963;BME280;47927;42.646;23.096;2023-04-01T00:08:05;91365.88;;;12.91;43.12
61963;BME280;47927;42.646;23.096;2023-04-01T00:10:30;91362.31;;;12.77;42.88
61963;BME280;47927;42.646;23.096;2023-04-01T00:12:56;91370.25;;;12.70;43.75
61963;BME280;47927;42.646;23.096;2023-04-01T00:15:21;91368.22;;;12.85;42.70
61963;BME280;47927;42.646;23.096;2023-04-01T00:17:47;91366.03;;;12.80;42.96
61963;BME280;47927;42.646;23.096;2023-04-01T00:20:13;91362.84;;;12.96;42.43
61963;BME280;47927;42.646;23.096;2023-04-01T00:22:40;91351.28;;;12.97;42.51
61963;BME280;47927;42.646;23.096;2023-04-01T00:25:06;91311.88;;;12.81;42.47
61963;BME280;47927;42.646;23.096;2023-04-01T00:27:32;91341.50;;;13.01;42.67
61963;BME280;47927;42.646;23.096;2023-04-01T00:29:57;91341.84;;;13.03;43.08
61963;BME280;47927;42.646;23.096;2023-04-01T00:32:23;91326.41;;;12.85;42.88
61963;BME280;47927;42.646;23.096;2023-04-01T00:34:52;91340.03;;;12.96;42.70
61963;BME280;47927;42.646;23.096;2023-04-01T00:37:19;91270.09;;;12.50;42.87
61963;BME280;47927;42.646;23.096;2023-04-01T00:39:46;91333.41;;;12.61;43.45
61963;BME280;47927;42.646;23.096;2023-04-01T00:42:12;91335.50;;;12.73;43.04
61963;BME280;47927;42.646;23.096;2023-04-01T00:44:39;91329.50;;;12.76;42.57
61963;BME280;47927;42.646;23.096;2023-04-01T00:47:05;91327.66;;;12.73;42.49
61963;BME280;47927;42.646;23.096;2023-04-01T00:49:43;91331.44;;;12.69;42.44
61963;BME280;47927;42.646;23.096;2023-04-01T00:52:13;91322.91;;;12.65;42.62
61963;BME280;47927;42.646;23.096;2023-04-01T00:54:40;91318.47;;;12.58;42.42
61963;BME280;47927;42.646;23.096;2023-04-01T00:57:27;91308.25;;;12.40;43.09
61963;BME280;47927;42.646;23.096;2023-04-01T00:59:55;91303.81;;;12.37;43.42
61963;BME280;47927;42.646;23.096;2023-04-01T01:02:21;91302.94;;;12.47;43.10
61963;BME280;47927;42.646;23.096;2023-04-01T01:04:47;91253.31;;;12.17;43.11
61963;BME280;47927;42.646;23.096;2023-04-01T01:07:43;91287.41;;;12.37;43.48
61963;BME280;47927;42.646;23.096;2023-04-01T01:10:20;91278.50;;;12.30;43.71
61963;BME280;47927;42.646;23.096;2023-04-01T01:21:29;91266.13;;;12.04;43.21
61963;BME280;47927;42.646;23.096;2023-04-01T01:23:57;91262.59;;;11.87;43.79
61963;BME280;47927;42.646;23.096;2023-04-01T01:29:14;91269.19;;;11.95;43.94
61963;BME280;47927;42.646;23.096;2023-04-01T01:32:06;91270.00;;;11.89;44.07
61963;BME280;47927;42.646;23.096;2023-04-01T01:37:17;91185.16;;;11.35;44.20
61963;BME280;47927;42.646;23.096;2023-04-01T01:39:49;91271.03;;;11.98;44.30
61963;BME280;47927;42.646;23.096;2023-04-01T01:42:16;91261.03;;;11.93;44.09
61963;BME280;47927;42.646;23.096;2023-04-01T01:44:45;91259.78;;;12.05;44.16
61963;BME280;47927;42.646;23.096;2023-04-01T01:47:13;91233.13;;;11.83;44.45
61963;BME280;47927;42.646;23.096;2023-04-01T01:49:41;91239.84;;;11.88;44.51
61963;BME280;47927;42.646;23.096;2023-04-01T01:52:07;91251.97;;;12.05;44.99
61963;BME280;47927;42.646;23.096;2023-04-01T01:54:33;91248.28;;;11.99;44.17
61963;BME280;47927;42.646;23.096;2023-04-01T01:57:09;91246.69;;;12.08;44.78
61963;BME280;47927;42.646;23.096;2023-04-01T01:59:39;91239.84;;;12.18;44.44
61963;BME280;47927;42.646;23.096;2023-04-01T02:02:08;91241.63;;;12.25;43.71
61963;BME280;47927;42.646;23.096;2023-04-01T02:04:38;91241.94;;;12.30;43.58
61963;BME280;47927;42.646;23.096;2023-04-01T02:07:09;91244.97;;;12.25;43.94
61963;BME280;47927;42.646;23.096;2023-04-01T02:09:37;91183.22;;;11.77;43.88
61963;BME280;47927;42.646;23.096;2023-04-01T02:12:09;91233.28;;;12.06;42.00
61963;BME280;47927;42.646;23.096;2023-04-01T02:14:47;91222.78;;;12.14;43.96
61963;BME280;47927;42.646;23.096;2023-04-01T02:17:24;91224.56;;;12.20;41.93
61963;BME280;47927;42.646;23.096;2023-04-01T02:19:56;91229.84;;;12.44;42.61
61963;BME280;47927;42.646;23.096;2023-04-01T02:22:29;91183.28;;;12.08;42.86
61963;BME280;47927;42.646;23.096;2023-04-01T02:25:09;91223.34;;;12.28;43.39
61963;BME280;47927;42.646;23.096;2023-04-01T02:27:35;91229.81;;;12.17;42.94
61963;BME280;47927;42.646;23.096;2023-04-01T02:30:02;91233.78;;;12.28;42.96
61963;BME280;47927;42.646;23.096;2023-04-01T02:32:31;91230.97;;;12.43;43.03
61963;BME280;47927;42.646;23.096;2023-04-01T02:34:58;91225.94;;;12.28;43.71
61963;BME280;47927;42.646;23.096;2023-04-01T02:37:25;91231.69;;;12.47;42.95
61963;BME280;47927;42.646;23.096;2023-04-01T02:39:51;91173.94;;;12.11;42.06
61963;BME280;47927;42.646;23.096;2023-04-01T02:42:17;91235.19;;;12.64;41.00
61963;BME280;47927;42.646;23.096;2023-04-01T02:44:42;91253.28;;;12.51;41.97
61963;BME280;47927;42.646;23.096;2023-04-01T02:47:08;91207.38;;;12.50;40.53
61963;BME280;47927;42.646;23.096;2023-04-01T02:49:33;91249.81;;;12.85;40.33
61963;BME280;47927;42.646;23.096;2023-04-01T02:51:59;91253.69;;;13.04;40.09
61963;BME280;47927;42.646;23.096;2023-04-01T02:54:24;91204.22;;;12.62;39.73
61963;BME280;47927;42.646;23.096;2023-04-01T02:56:50;91263.06;;;13.28;38.86
61963;BME280;47927;42.646;23.096;2023-04-01T02:59:15;91252.72;;;13.44;38.72
61963;BME280;47927;42.646;23.096;2023-04-01T03:01:41;91218.09;;;13.37;40.03
61963;BME280;47927;42.646;23.096;2023-04-01T03:04:06;91259.53;;;13.62;40.91
61963;BME280;47927;42.646;23.096;2023-04-01T03:06:33;91251.88;;;13.51;42.27
61963;BME280;47927;42.646;23.096;2023-04-01T03:08:58;91248.97;;;13.18;43.24
61963;BME280;47927;42.646;23.096;2023-04-01T03:11:25;91256.06;;;12.67;42.18
61963;BME280;47927;42.646;23.096;2023-04-01T03:13:51;91266.53;;;12.91;41.28
61963;BME280;47927;42.646;23.096;2023-04-01T03:16:17;91261.84;;;12.51;44.74
61963;BME280;47927;42.646;23.096;2023-04-01T03:18:42;91208.88;;;11.86;45.73
61963;BME280;47927;42.646;23.096;2023-04-01T03:21:13;91236.78;;;12.27;45.05
61963;BME280;47927;42.646;23.096;2023-04-01T03:23:39;91172.03;;;12.42;43.96
61963;BME280;47927;42.646;23.096;2023-04-01T03:26:05;91204.44;;;12.98;44.93
61963;BME280;47927;42.646;23.096;2023-04-01T03:28:30;91194.59;;;13.33;44.00
61963;BME280;47927;42.646;23.096;2023-04-01T03:30:56;91188.47;;;13.63;42.10
61963;BME280;47927;42.646;23.096;2023-04-01T03:33:22;91175.25;;;13.71;43.51
61963;BME280;47927;42.646;23.096;2023-04-01T03:35:47;91160.28;;;13.71;44.45
61963;BME280;47927;42.646;23.096;2023-04-01T03:38:13;91140.34;;;13.57;45.18
61963;BME280;47927;42.646;23.096;2023-04-01T03:40:42;91158.47;;;13.68;44.59
61963;BME280;47927;42.646;23.096;2023-04-01T03:43:07;91150.13;;;13.53;45.93
61963;BME280;47927;42.646;23.096;2023-04-01T03:45:46;91099.41;;;13.27;45.53
61963;BME280;47927;42.646;23.096;2023-04-01T03:48:14;91154.09;;;13.61;47.49
61963;BME280;47927;42.646;23.096;2023-04-01T03:50:39;91147.28;;;13.48;46.98
61963;BME280;47927;42.646;23.096;2023-04-01T03:53:05;91135.16;;;13.34;48.26
61963;BME280;47927;42.646;23.096;2023-04-01T03:55:31;91123.78;;;13.20;48.28
61963;BME280;47927;42.646;23.096;2023-04-01T03:57:57;91139.94;;;13.15;49.37
61963;BME280;47927;42.646;23.096;2023-04-01T04:00:22;91133.91;;;13.18;48.97
61963;BME280;47927;42.646;23.096;2023-04-01T04:02:52;91135.63;;;13.05;50.29
61963;BME280;47927;42.646;23.096;2023-04-01T04:05:25;91130.59;;;12.94;49.87
61963;BME280;47927;42.646;23.096;2023-04-01T04:07:52;91085.97;;;12.58;50.21
61963;BME280;47927;42.646;23.096;2023-04-01T04:10:18;91127.16;;;12.74;50.67
61963;BME280;47927;42.646;23.096;2023-04-01T04:12:44;91081.91;;;12.30;50.95
61963;BME280;47927;42.646;23.096;2023-04-01T04:15:10;91121.13;;;12.53;52.20
61963;BME280;47927;42.646;23.096;2023-04-01T04:17:36;91067.63;;;11.80;52.63
61963;BME280;47927;42.646;23.096;2023-04-01T04:20:02;91040.34;;;11.58;50.39
61963;BME280;47927;42.646;23.096;2023-04-01T04:22:28;91108.56;;;12.18;48.69
61963;BME280;47927;42.646;23.096;2023-04-01T04:24:54;91106.69;;;11.91;46.83
61963;BME280;47927;42.646;23.096;2023-04-01T04:27:20;91102.97;;;11.89;45.45
61963;BME280;47927;42.646;23.096;2023-04-01T04:30:05;91081.91;;;12.03;43.11
61963;BME280;47927;42.646;23.096;2023-04-01T04:32:32;91088.72;;;12.24;46.32
61963;BME280;47927;42.646;23.096;2023-04-01T04:34:58;91055.69;;;12.61;43.54
61963;BME280;47927;42.646;23.096;2023-04-01T04:37:24;91086.91;;;13.15;43.72
61963;BME280;47927;42.646;23.096;2023-04-01T04:39:51;91088.09;;;13.34;43.40
61963;BME280;47927;42.646;23.096;2023-04-01T04:42:17;91080.63;;;13.52;42.76
61963;BME280;47927;42.646;23.096;2023-04-01T04:44:43;91076.69;;;13.44;42.05
61963;BME280;47927;42.646;23.096;2023-04-01T04:47:09;91019.66;;;13.15;42.23
61963;BME280;47927;42.646;23.096;2023-04-01T04:49:35;91072.75;;;13.36;41.43
61963;BME280;47927;42.646;23.096;2023-04-01T04:52:05;91065.91;;;13.42;40.58
61963;BME280;47927;42.646;23.096;2023-04-01T04:54:31;91061.94;;;13.34;40.23
61963;BME280;47927;42.646;23.096;2023-04-01T04:56:58;91000.59;;;12.95;41.56
61963;BME280;47927;42.646;23.096;2023-04-01T04:59:26;90989.41;;;13.14;40.88
61963;BME280;47927;42.646;23.096;2023-04-01T05:02:00;91053.19;;;13.60;40.95
61963;BME280;47927;42.646;23.096;2023-04-01T05:04:26;91044.47;;;13.47;39.63
61963;BME280;47927;42.646;23.096;2023-04-01T05:06:52;90970.31;;;12.97;40.65
61963;BME280;47927;42.646;23.096;2023-04-01T05:09:18;91030.19;;;13.32;40.63
61963;BME280;47927;42.646;23.096;2023-04-01T05:11:43;90990.50;;;12.97;40.31
61963;BME280;47927;42.646;23.096;2023-04-01T05:14:16;91025.47;;;13.23;40.00
61963;BME280;47927;42.646;23.096;2023-04-01T05:16:46;91033.09;;;13.37;40.29
61963;BME280;47927;42.646;23.096;2023-04-01T05:19:11;91019.31;;;13.53;40.42
61963;BME280;47927;42.646;23.096;2023-04-01T05:21:37;91026.44;;;14.05;39.09
61963;BME280;47927;42.646;23.096;2023-04-01T05:24:03;91033.69;;;15.67;35.61
61963;BME280;47927;42.646;23.096;2023-04-01T05:26:30;91033.13;;;17.00;33.18
61963;BME280;47927;42.646;23.096;2023-04-01T05:28:57;91037.00;;;19.32;31.97
61963;BME280;47927;42.646;23.096;2023-04-01T05:31:23;91035.47;;;22.32;27.90
61963;BME280;47927;42.646;23.096;2023-04-01T05:33:50;91036.19;;;24.22;22.96
61963;BME280;47927;42.646;23.096;2023-04-01T05:36:16;91024.66;;;25.99;21.05
61963;BME280;47927;42.646;23.096;2023-04-01T05:38:42;91030.69;;;26.90;19.88
61963;BME280;47927;42.646;23.096;2023-04-01T05:41:10;91029.69;;;27.62;18.73
61963;BME280;47927;42.646;23.096;2023-04-01T05:43:40;90999.78;;;27.17;18.10
61963;BME280;47927;42.646;23.096;2023-04-01T05:46:44;91009.88;;;26.60;19.24
61963;BME280;47927;42.646;23.096;2023-04-01T05:49:21;91025.75;;;28.16;17.68
61963;BME280;47927;42.646;23.096;2023-04-01T05:51:48;91026.16;;;29.29;16.97
61963;BME280;47927;42.646;23.096;2023-04-01T05:54:14;91016.19;;;28.56;17.15
61963;BME280;47927;42.646;23.096;2023-04-01T05:56:39;91029.41;;;27.13;18.50
61963;BME280;47927;42.646;23.096;2023-04-01T05:59:05;91030.31;;;25.36;19.39
61963;BME280;47927;42.646;23.096;2023-04-01T06:01:31;91020.19;;;24.17;21.55
61963;BME280;47927;42.646;23.096;2023-04-01T06:03:57;91028.03;;;23.07;23.43
61963;BME280;47927;42.646;23.096;2023-04-01T06:06:30;91017.94;;;20.49;25.62
61963;BME280;47927;42.646;23.096;2023-04-01T06:09:17;91016.47;;;19.18;27.19
61963;BME280;47927;42.646;23.096;2023-04-01T06:15:17;91022.25;;;17.54;29.89
61963;BME280;47927;42.646;23.096;2023-04-01T06:18:03;91033.59;;;17.20;30.85
61963;BME280;47927;42.646;23.096;2023-04-01T06:29:05;90998.59;;;16.76;32.00
61963;BME280;47927;42.646;23.096;2023-04-01T06:34:40;90992.19;;;15.36;34.79
61963;BME280;47927;42.646;23.096;2023-04-01T06:37:19;90995.25;;;15.47;34.91
61963;BME280;47927;42.646;23.096;2023-04-01T06:40:13;91005.31;;;15.36;34.69
61963;BME280;47927;42.646;23.096;2023-04-01T06:46:06;90967.03;;;14.51;36.25
61963;BME280;47927;42.646;23.096;2023-04-01T06:55:36;90978.19;;;14.23;37.39
61963;BME280;47927;42.646;23.096;2023-04-01T06:58:28;90977.19;;;14.33;36.65
61963;BME280;47927;42.646;23.096;2023-04-01T07:01:06;90972.94;;;14.06;37.16
61963;BME280;47927;42.646;23.096;2023-04-01T07:03:36;90968.94;;;13.49;38.33
61963;BME280;47927;42.646;23.096;2023-04-01T07:06:12;90968.13;;;13.52;39.02
61963;BME280;47927;42.646;23.096;2023-04-01T07:08:49;90970.63;;;13.59;38.51
61963;BME280;47927;42.646;23.096;2023-04-01T07:11:25;90977.50;;;13.86;38.14
61963;BME280;47927;42.646;23.096;2023-04-01T07:14:25;90987.66;;;14.00;37.79
61963;BME280;47927;42.646;23.096;2023-04-01T07:17:16;90985.53;;;14.44;37.10
61963;BME280;47927;42.646;23.096;2023-04-01T07:19:47;90964.63;;;14.57;36.21
61963;BME280;47927;42.646;23.096;2023-04-01T07:25:22;90981.72;;;14.78;36.60
61963;BME280;47927;42.646;23.096;2023-04-01T07:28:04;90949.03;;;15.37;34.91
61963;BME280;47927;42.646;23.096;2023-04-01T07:33:56;90985.63;;;16.08;33.82
61963;BME280;47927;42.646;23.096;2023-04-01T07:45:24;90979.22;;;14.87;34.43
61963;BME280;47927;42.646;23.096;2023-04-01T07:50:43;90988.06;;;14.64;34.56
61963;BME280;47927;42.646;23.096;2023-04-01T07:53:25;90982.78;;;14.80;34.86
61963;BME280;47927;42.646;23.096;2023-04-01T07:56:10;90978.59;;;14.83;34.93
61963;BME280;47927;42.646;23.096;2023-04-01T08:06:26;90953.38;;;16.08;32.55
61963;BME280;47927;42.646;23.096;2023-04-01T08:19:11;90910.28;;;16.18;32.34
61963;BME280;47927;42.646;23.096;2023-04-01T08:21:52;90834.63;;;15.65;32.13
61963;BME280;47927;42.646;23.096;2023-04-01T08:24:45;90897.81;;;16.09;32.59
61963;BME280;47927;42.646;23.096;2023-04-01T08:27:18;90883.53;;;17.11;31.26
61963;BME280;47927;42.646;23.096;2023-04-01T08:29:51;90889.72;;;16.95;30.63
61963;BME280;47927;42.646;23.096;2023-04-01T08:32:23;90809.78;;;16.49;30.89
61963;BME280;47927;42.646;23.096;2023-04-01T08:35:02;90863.81;;;17.16;30.02
61963;BME280;47927;42.646;23.096;2023-04-01T08:37:38;90841.22;;;16.96;30.20
61963;BME280;47927;42.646;23.096;2023-04-01T08:44:34;90827.66;;;17.88;28.05
61963;BME280;47927;42.646;23.096;2023-04-01T08:50:27;90870.91;;;17.68;29.36
61963;BME280;47927;42.646;23.096;2023-04-01T08:55:53;90830.44;;;16.37;29.96
61963;BME280;47927;42.646;23.096;2023-04-01T09:37:54;90808.97;;;16.17;31.90
61963;BME280;47927;42.646;23.096;2023-04-01T09:40:56;90810.53;;;16.27;31.93
61963;BME280;47927;42.646;23.096;2023-04-01T09:47:25;90798.38;;;16.96;31.21
61963;BME280;47927;42.646;23.096;2023-04-01T10:01:39;90738.66;;;16.21;33.51
61963;BME280;47927;42.646;23.096;2023-04-01T10:20:46;90747.44;;;16.80;32.77
61963;BME280;47927;42.646;23.096;2023-04-01T10:40:50;90718.50;;;16.80;32.72
61963;BME280;47927;42.646;23.096;2023-04-01T11:09:19;90708.63;;;16.31;33.74
61963;BME280;47927;42.646;23.096;2023-04-01T11:33:33;90868.03;;;14.13;54.67
61963;BME280;47927;42.646;23.096;2023-04-01T11:36:44;90881.53;;;13.10;56.56
61963;BME280;47927;42.646;23.096;2023-04-01T11:42:37;90896.88;;;13.28;57.39
61963;BME280;47927;42.646;23.096;2023-04-01T11:45:36;90878.50;;;12.75;58.95
61963;BME280;47927;42.646;23.096;2023-04-01T11:53:59;90900.00;;;12.83;59.57
61963;BME280;47927;42.646;23.096;2023-04-01T12:05:43;90902.06;;;13.97;56.91
61963;BME280;47927;42.646;23.096;2023-04-01T12:08:25;90852.44;;;14.23;56.98
61963;BME280;47927;42.646;23.096;2023-04-01T12:17:15;90887.91;;;14.56;55.70
61963;BME280;47927;42.646;23.096;2023-04-01T12:22:53;90885.38;;;14.36;56.03
61963;BME280;47927;42.646;23.096;2023-04-01T12:25:23;90932.16;;;14.38;55.48
61963;BME280;47927;42.646;23.096;2023-04-01T12:41:15;90914.16;;;13.58;56.65
61963;BME280;47927;42.646;23.096;2023-04-01T12:49:45;90887.50;;;13.47;56.21
61963;BME280;47927;42.646;23.096;2023-04-01T12:55:36;90887.03;;;13.52;55.71
61963;BME280;47927;42.646;23.096;2023-04-01T13:20:43;90849.94;;;15.28;55.30
61963;BME280;47927;42.646;23.096;2023-04-01T13:23:41;90843.31;;;15.49;52.57
61963;BME280;47927;42.646;23.096;2023-04-01T13:26:18;90839.44;;;15.54;54.36
61963;BME280;47927;42.646;23.096;2023-04-01T13:28:51;90824.88;;;15.40;54.09
61963;BME280;47927;42.646;23.096;2023-04-01T13:44:51;90737.47;;;13.83;54.17
61963;BME280;47927;42.646;23.096;2023-04-01T13:58:54;90759.94;;;14.26;51.04
61963;BME280;47927;42.646;23.096;2023-04-01T14:01:32;90761.78;;;14.54;51.36
61963;BME280;47927;42.646;23.096;2023-04-01T14:06:56;90763.16;;;14.17;51.51
61963;BME280;47927;42.646;23.096;2023-04-01T14:13:37;90700.16;;;13.66;49.61
61963;BME280;47927;42.646;23.096;2023-04-01T14:21:36;90763.50;;;15.12;48.42
61963;BME280;47927;42.646;23.096;2023-04-01T14:29:24;90749.22;;;15.13;46.63
61963;BME280;47927;42.646;23.096;2023-04-01T14:32:39;90739.66;;;15.32;47.58
61963;BME280;47927;42.646;23.096;2023-04-01T14:41:16;90730.03;;;15.16;46.78
61963;BME280;47927;42.646;23.096;2023-04-01T14:43:55;90723.53;;;14.95;47.90
61963;BME280;47927;42.646;23.096;2023-04-01T14:49:24;90720.75;;;14.22;50.94
61963;BME280;47927;42.646;23.096;2023-04-01T14:51:55;90715.41;;;14.26;50.15
61963;BME280;47927;42.646;23.096;2023-04-01T14:54:41;90700.91;;;14.08;51.54
61963;BME280;47927;42.646;23.096;2023-04-01T14:57:11;90731.72;;;13.59;52.63
61963;BME280;47927;42.646;23.096;2023-04-01T14:59:47;90733.53;;;13.91;51.97
61963;BME280;47927;42.646;23.096;2023-04-01T15:05:15;90741.38;;;14.75;50.61
61963;BME280;47927;42.646;23.096;2023-04-01T15:08:00;90738.53;;;14.56;50.74
61963;BME280;47927;42.646;23.096;2023-04-01T15:16:07;90746.75;;;14.42;51.12
61963;BME280;47927;42.646;23.096;2023-04-01T15:30:35;90774.16;;;16.04;49.16
61963;BME280;47927;42.646;23.096;2023-04-01T15:35:42;90772.25;;;16.26;47.10
61963;BME280;47927;42.646;23.096;2023-04-01T15:41:15;90777.28;;;16.33;48.03
61963;BME280;47927;42.646;23.096;2023-04-01T15:43:46;90808.19;;;16.29;47.20
61963;BME280;47927;42.646;23.096;2023-04-01T15:46:46;90861.88;;;14.49;49.54
61963;BME280;47927;42.646;23.096;2023-04-01T15:57:29;90858.16;;;10.07;60.06
61963;BME280;47927;42.646;23.096;2023-04-01T16:00:23;90922.66;;;9.81;62.19
61963;BME280;47927;42.646;23.096;2023-04-01T16:03:09;90931.25;;;9.19;64.34
61963;BME280;47927;42.646;23.096;2023-04-01T16:19:56;90970.13;;;9.40;63.06
61963;BME280;47927;42.646;23.096;2023-04-01T16:22:32;90970.47;;;9.42;62.51
61963;BME280;47927;42.646;23.096;2023-04-01T16:25:14;90992.00;;;9.43;62.03
61963;BME280;47927;42.646;23.096;2023-04-01T16:27:53;90986.91;;;9.28;61.41
61963;BME280;47927;42.646;23.096;2023-04-01T16:30:37;91009.78;;;9.58;60.51
61963;BME280;47927;42.646;23.096;2023-04-01T16:33:12;91020.75;;;9.10;61.28
61963;BME280;47927;42.646;23.096;2023-04-01T16:46:21;91037.94;;;10.23;57.84
61963;BME280;47927;42.646;23.096;2023-04-01T16:52:04;91040.66;;;9.42;59.15
61963;BME280;47927;42.646;23.096;2023-04-01T16:55:00;91040.13;;;9.72;58.45
61963;BME280;47927;42.646;23.096;2023-04-01T17:02:30;91079.28;;;10.17;57.03
61963;BME280;47927;42.646;23.096;2023-04-01T17:05:11;91088.56;;;9.45;59.25
61963;BME280;47927;42.646;23.096;2023-04-01T17:07:48;91082.66;;;9.37;58.80
61963;BME280;47927;42.646;23.096;2023-04-01T17:10:36;91094.84;;;9.54;58.42
61963;BME280;47927;42.646;23.096;2023-04-01T17:18:14;91093.00;;;9.55;57.93
61963;BME280;47927;42.646;23.096;2023-04-01T17:20:50;91021.72;;;9.42;57.28
61963;BME280;47927;42.646;23.096;2023-04-01T17:23:28;91086.91;;;9.83;56.96
61963;BME280;47927;42.646;23.096;2023-04-01T17:26:37;91083.84;;;9.99;56.74
61963;BME280;47927;42.646;23.096;2023-04-01T17:31:57;91094.22;;;10.06;56.08
61963;BME280;47927;42.646;23.096;2023-04-01T17:34:56;91104.84;;;9.67;56.51
61963;BME280;47927;42.646;23.096;2023-04-01T17:43:10;91111.38;;;8.73;60.71
61963;BME280;47927;42.646;23.096;2023-04-01T17:45:45;91110.28;;;8.81;60.44
61963;BME280;47927;42.646;23.096;2023-04-01T17:51:15;91102.00;;;9.25;58.76
61963;BME280;47927;42.646;23.096;2023-04-01T17:53:51;90966.41;;;8.50;58.06
61963;BME280;47927;42.646;23.096;2023-04-01T18:01:42;91089.88;;;8.76;58.23
61963;BME280;47927;42.646;23.096;2023-04-01T18:04:30;91149.53;;;9.26;58.12
61963;BME280;47927;42.646;23.096;2023-04-01T18:27:04;91165.16;;;8.90;58.82
61963;BME280;47927;42.646;23.096;2023-04-01T18:29:49;91134.00;;;8.65;58.51
61963;BME280;47927;42.646;23.096;2023-04-01T18:40:47;91172.91;;;9.26;57.91
61963;BME280;47927;42.646;23.096;2023-04-01T18:52:26;91181.44;;;9.26;57.53
61963;BME280;47927;42.646;23.096;2023-04-01T19:00:38;91191.88;;;9.19;57.07
61963;BME280;47927;42.646;23.096;2023-04-01T19:05:45;91174.97;;;9.81;54.92
61963;BME280;47927;42.646;23.096;2023-04-01T19:14:09;91211.81;;;9.69;55.21
61963;BME280;47927;42.646;23.096;2023-04-01T19:16:46;91215.19;;;9.55;55.96
61963;BME280;47927;42.646;23.096;2023-04-01T19:35:27;91203.72;;;9.27;56.17
61963;BME280;47927;42.646;23.096;2023-04-01T19:38:15;91204.13;;;8.94;57.02
61963;BME280;47927;42.646;23.096;2023-04-01T19:46:36;91214.81;;;9.56;54.55
61963;BME280;47927;42.646;23.096;2023-04-01T19:59:49;91234.00;;;10.06;52.98
61963;BME280;47927;42.646;23.096;2023-04-01T20:07:51;91194.34;;;9.69;53.82
61963;BME280;47927;42.646;23.096;2023-04-01T20:10:22;91240.78;;;9.81;54.39
61963;BME280;47927;42.646;23.096;2023-04-01T20:16:07;91182.88;;;9.52;54.36
61963;BME280;47927;42.646;23.096;2023-04-01T20:21:03;91159.50;;;9.45;54.22
61963;BME280;47927;42.646;23.096;2023-04-01T20:23:39;91251.41;;;10.16;54.02
61963;BME280;47927;42.646;23.096;2023-04-01T20:26:19;91243.59;;;10.19;53.67
61963;BME280;47927;42.646;23.096;2023-04-01T20:37:51;91264.16;;;9.85;54.79
61963;BME280;47927;42.646;23.096;2023-04-01T20:40:38;91255.72;;;9.20;56.04
61963;BME280;47927;42.646;23.096;2023-04-01T20:51:14;91261.25;;;9.54;56.33
61963;BME280;47927;42.646;23.096;2023-04-01T20:53:50;91206.72;;;8.58;57.64
61963;BME280;47927;42.646;23.096;2023-04-01T20:56:27;91256.53;;;7.94;61.66
61963;BME280;47927;42.646;23.096;2023-04-01T20:59:09;91267.94;;;8.91;58.82
61963;BME280;47927;42.646;23.096;2023-04-01T21:02:19;91268.31;;;9.47;57.50
61963;BME280;47927;42.646;23.096;2023-04-01T21:05:22;91269.03;;;9.54;56.87
61963;BME280;47927;42.646;23.096;2023-04-01T21:13:15;91261.28;;;9.40;56.66
61963;BME280;47927;42.646;23.096;2023-04-01T21:18:51;91281.69;;;9.52;56.20
61963;BME280;47927;42.646;23.096;2023-04-01T21:27:07;91283.13;;;8.71;58.15
61963;BME280;47927;42.646;23.096;2023-04-01T21:40:29;91279.81;;;8.78;57.61
61963;BME280;47927;42.646;23.096;2023-04-01T22:04:19;91294.56;;;7.65;60.89
61963;BME280;47927;42.646;23.096;2023-04-01T22:07:14;91224.47;;;7.47;59.94
61963;BME280;47927;42.646;23.096;2023-04-01T22:12:52;91276.47;;;7.79;59.82
61963;BME280;47927;42.646;23.096;2023-04-01T22:15:40;91266.16;;;7.90;59.55
61963;BME280;47927;42.646;23.096;2023-04-01T22:21:12;91205.88;;;6.79;59.62
61963;BME280;47927;42.646;23.096;2023-04-01T22:26:35;91215.59;;;7.51;57.43
61963;BME280;47927;42.646;23.096;2023-04-01T22:31:59;91277.66;;;7.89;56.53
61963;BME280;47927;42.646;23.096;2023-04-01T22:37:18;91282.44;;;7.24;58.66
61963;BME280;47927;42.646;23.096;2023-04-01T22:42:53;91290.25;;;7.31;57.80
61963;BME280;47927;42.646;23.096;2023-04-01T22:56:24;91248.75;;;6.73;58.55
61963;BME280;47927;42.646;23.096;2023-04-01T22:59:00;91294.78;;;6.94;59.13
61963;BME280;47927;42.646;23.096;2023-04-01T23:01:34;91299.28;;;7.04;58.82
61963;BME280;47927;42.646;23.096;2023-04-01T23:04:04;91299.28;;;7.04;58.11
61963;BME280;47927;42.646;23.096;2023-04-01T23:06:38;91278.13;;;6.95;56.91
61963;BME280;47927;42.646;23.096;2023-04-01T23:09:17;91294.06;;;6.97;57.29
61963;BME280;47927;42.646;23.096;2023-04-01T23:11:51;91252.97;;;6.51;57.96
61963;BME280;47927;42.646;23.096;2023-04-01T23:16:52;91295.66;;;6.68;57.99
61963;BME280;47927;42.646;23.096;2023-04-01T23:19:37;91299.19;;;6.52;58.19
61963;BME280;47927;42.646;23.096;2023-04-01T23:22:25;91306.03;;;6.34;58.61
61963;BME280;47927;42.646;23.096;2023-04-01T23:25:02;91260.72;;;5.83;59.56
61963;BME280;47927;42.646;23.096;2023-04-01T23:27:39;91311.06;;;6.23;57.66
61963;BME280;47927;42.646;23.096;2023-04-01T23:35:53;91308.41;;;6.16;57.43
61963;BME280;47927;42.646;23.096;2023-04-01T23:38:22;91314.16;;;6.02;57.69
61963;BME280;47927;42.646;23.096;2023-04-01T23:40:50;91321.06;;;5.94;58.31
61963;BME280;47927;42.646;23.096;2023-04-01T23:43:30;91325.94;;;6.00;58.06
61963;BME280;47927;42.646;23.096;2023-04-01T23:45:58;91259.88;;;5.45;57.97
61963;BME280;47927;42.646;23.096;2023-04-01T23:48:34;91330.28;;;5.65;59.15
61963;BME280;47927;42.646;23.096;2023-04-01T23:51:01;91306.41;;;5.49;59.55
61963;BME280;47927;42.646;23.096;2023-04-01T23:53:33;91292.47;;;5.54;59.50
61963;BME280;47927;42.646;23.096;2023-04-01T23:56:01;91324.28;;;5.61;59.82